Portada
METAR-TAF:

METAR-TAF

Aeropuertos :

Aeropuerto Internacional de Nador

Nador, Marruecos

latitud: 34-59-20N, longitud: 003-01-42W, altitud: 175 m

Observación

El informe se hizo hace 47 minutos, a las 01:00 UTC
Viento 4 kt del suroeste
Temperatura 10°C
Humedad 76%
Presión 1019 hPa
Visibilidad 10 km o más
sin nubes por debajo de 1500 m y sin presencia de cumulonimbus.

METAR: GMMW 240100Z 23004KT CAVOK 10/06 Q1019 NOSIG

Hora: 02:47 (01:47 UTC)

Pronóstico

El informe se hizo hace 2 horas y 47 minutos, a las 23:00 UTC
Pronóstico válido del 24 a las 00 UTC al 25 a las 06 UTC
Viento 2 kt con dirección variable
Visibilidad 10 km o más
sin nubes por debajo de 1500 m y sin presencia de cumulonimbus.

TAF: GMMW 232300Z 2400/2506 VRB02KT CAVOK

Observaciones y pronósticos meteorológicos de más de 4000 aeropuertos (mensajes METAR y TAF).

Los puntos amarillos y rojos representan las estaciones disponibles.

Ponga el ratón en el punto deseado para ver el nombre de la estación.

Haga clic para ver las observaciones y los pronósticos meteorológicos.

Para cambiar el mapa : haga clic en los botones verdes con una cruz de color negro para hacer un zoom, en el botón verde con un guión para alejar o en las flechas verdes para mapas adyacentes.


METAR-TAF: